sensor_id;sensor_type;location;lat;lon;timestamp;temperature;humidity
44305;DHT22;30019;50.576;8.568;2024-02-28T00:01:52;1.50;78.30
44305;DHT22;30019;50.576;8.568;2024-02-28T00:04:18;1.30;77.80
44305;DHT22;30019;50.576;8.568;2024-02-28T00:06:44;1.40;77.80
44305;DHT22;30019;50.576;8.568;2024-02-28T00:09:12;1.30;77.60
44305;DHT22;30019;50.576;8.568;2024-02-28T00:11:46;1.10;77.40
44305;DHT22;30019;50.576;8.568;2024-02-28T00:14:12;1.10;77.50
44305;DHT22;30019;50.576;8.568;2024-02-28T00:16:44;1.20;77.50
44305;DHT22;30019;50.576;8.568;2024-02-28T00:19:11;1.10;77.60
44305;DHT22;30019;50.576;8.568;2024-02-28T00:21:41;1.00;78.50
44305;DHT22;30019;50.576;8.568;2024-02-28T00:24:07;0.90;78.70
44305;DHT22;30019;50.576;8.568;2024-02-28T00:26:32;1.00;78.80
44305;DHT22;30019;50.576;8.568;2024-02-28T00:28:58;1.10;79.00
44305;DHT22;30019;50.576;8.568;2024-02-28T00:31:24;1.00;79.00
44305;DHT22;30019;50.576;8.568;2024-02-28T00:33:49;1.00;78.90
44305;DHT22;30019;50.576;8.568;2024-02-28T00:36:15;0.90;79.30
44305;DHT22;30019;50.576;8.568;2024-02-28T00:38:41;0.90;79.60
44305;DHT22;30019;50.576;8.568;2024-02-28T00:41:06;0.80;79.80
44305;DHT22;30019;50.576;8.568;2024-02-28T00:43:32;0.80;79.60
44305;DHT22;30019;50.576;8.568;2024-02-28T00:45:57;0.80;79.90
44305;DHT22;30019;50.576;8.568;2024-02-28T00:48:24;0.70;79.80
44305;DHT22;30019;50.576;8.568;2024-02-28T00:50:50;0.70;80.00
44305;DHT22;30019;50.576;8.568;2024-02-28T00:53:16;0.70;80.20
44305;DHT22;30019;50.576;8.568;2024-02-28T00:55:42;0.60;80.10
44305;DHT22;30019;50.576;8.568;2024-02-28T00:58:08;0.70;80.40
44305;DHT22;30019;50.576;8.568;2024-02-28T01:00:33;0.60;80.00
44305;DHT22;30019;50.576;8.568;2024-02-28T01:02:59;0.60;80.60
44305;DHT22;30019;50.576;8.568;2024-02-28T01:05:24;0.70;80.80
44305;DHT22;30019;50.576;8.568;2024-02-28T01:07:50;0.60;80.50
44305;DHT22;30019;50.576;8.568;2024-02-28T01:10:15;0.50;80.60
44305;DHT22;30019;50.576;8.568;2024-02-28T01:12:41;0.50;80.60
44305;DHT22;30019;50.576;8.568;2024-02-28T01:15:07;0.40;80.30
44305;DHT22;30019;50.576;8.568;2024-02-28T01:17:32;0.30;80.70
44305;DHT22;30019;50.576;8.568;2024-02-28T01:19:58;0.40;81.50
44305;DHT22;30019;50.576;8.568;2024-02-28T01:22:24;0.50;81.30
44305;DHT22;30019;50.576;8.568;2024-02-28T01:24:49;0.40;81.10
44305;DHT22;30019;50.576;8.568;2024-02-28T01:27:15;0.40;81.30
44305;DHT22;30019;50.576;8.568;2024-02-28T01:29:40;0.30;81.00
44305;DHT22;30019;50.576;8.568;2024-02-28T01:32:06;0.30;81.30
44305;DHT22;30019;50.576;8.568;2024-02-28T01:34:32;0.40;81.60
44305;DHT22;30019;50.576;8.568;2024-02-28T01:36:57;0.30;81.00
44305;DHT22;30019;50.576;8.568;2024-02-28T01:39:23;0.30;81.30
44305;DHT22;30019;50.576;8.568;2024-02-28T01:41:55;0.30;81.40
44305;DHT22;30019;50.576;8.568;2024-02-28T01:44:23;0.20;81.40
44305;DHT22;30019;50.576;8.568;2024-02-28T01:46:49;0.20;81.30
44305;DHT22;30019;50.576;8.568;2024-02-28T01:49:15;0.20;81.50
44305;DHT22;30019;50.576;8.568;2024-02-28T01:51:41;0.20;81.30
44305;DHT22;30019;50.576;8.568;2024-02-28T01:54:08;0.20;81.70
44305;DHT22;30019;50.576;8.568;2024-02-28T01:56:34;0.10;81.60
44305;DHT22;30019;50.576;8.568;2024-02-28T01:59:00;0.10;81.70
44305;DHT22;30019;50.576;8.568;2024-02-28T02:01:27;0.10;82.30
44305;DHT22;30019;50.576;8.568;2024-02-28T02:03:54;0.10;82.00
44305;DHT22;30019;50.576;8.568;2024-02-28T02:06:19;0.00;81.80
44305;DHT22;30019;50.576;8.568;2024-02-28T02:08:46;0.00;82.20
44305;DHT22;30019;50.576;8.568;2024-02-28T02:11:14;0.00;82.30
44305;DHT22;30019;50.576;8.568;2024-02-28T02:13:53;0.00;82.30
44305;DHT22;30019;50.576;8.568;2024-02-28T02:16:19;0.00;82.50
44305;DHT22;30019;50.576;8.568;2024-02-28T02:18:47;0.00;82.60
44305;DHT22;30019;50.576;8.568;2024-02-28T02:21:17;0.00;82.20
44305;DHT22;30019;50.576;8.568;2024-02-28T02:23:43;-0.10;82.10
44305;DHT22;30019;50.576;8.568;2024-02-28T02:26:08;-0.10;82.50
44305;DHT22;30019;50.576;8.568;2024-02-28T02:28:34;-0.20;82.40
44305;DHT22;30019;50.576;8.568;2024-02-28T02:31:00;-0.20;82.40
44305;DHT22;30019;50.576;8.568;2024-02-28T02:33:25;-0.20;82.50
44305;DHT22;30019;50.576;8.568;2024-02-28T02:35:53;-0.30;82.50
44305;DHT22;30019;50.576;8.568;2024-02-28T02:38:18;-0.30;82.70
44305;DHT22;30019;50.576;8.568;2024-02-28T02:40:47;-0.40;82.30
44305;DHT22;30019;50.576;8.568;2024-02-28T02:43:14;-0.40;82.80
44305;DHT22;30019;50.576;8.568;2024-02-28T02:45:39;-0.40;83.10
44305;DHT22;30019;50.576;8.568;2024-02-28T02:48:05;-0.40;83.10
44305;DHT22;30019;50.576;8.568;2024-02-28T02:50:31;-0.20;83.10
44305;DHT22;30019;50.576;8.568;2024-02-28T02:52:56;-0.30;82.60
44305;DHT22;30019;50.576;8.568;2024-02-28T02:55:22;-0.40;82.50
44305;DHT22;30019;50.576;8.568;2024-02-28T02:57:47;-0.50;82.70
44305;DHT22;30019;50.576;8.568;2024-02-28T03:00:13;-0.50;82.80
44305;DHT22;30019;50.576;8.568;2024-02-28T03:02:38;-0.50;82.80
44305;DHT22;30019;50.576;8.568;2024-02-28T03:05:05;-0.50;82.90
44305;DHT22;30019;50.576;8.568;2024-02-28T03:07:31;-0.50;83.10
44305;DHT22;30019;50.576;8.568;2024-02-28T03:09:56;-0.50;82.70
44305;DHT22;30019;50.576;8.568;2024-02-28T03:12:22;-0.50;83.10
44305;DHT22;30019;50.576;8.568;2024-02-28T03:14:48;-0.50;82.70
44305;DHT22;30019;50.576;8.568;2024-02-28T03:17:14;-0.50;82.60
44305;DHT22;30019;50.576;8.568;2024-02-28T03:19:44;-0.50;83.20
44305;DHT22;30019;50.576;8.568;2024-02-28T03:22:09;-0.50;82.80
44305;DHT22;30019;50.576;8.568;2024-02-28T03:24:35;-0.50;82.90
44305;DHT22;30019;50.576;8.568;2024-02-28T03:27:01;-0.60;82.70
44305;DHT22;30019;50.576;8.568;2024-02-28T03:29:27;-0.60;83.10
44305;DHT22;30019;50.576;8.568;2024-02-28T03:31:53;-0.70;83.00
44305;DHT22;30019;50.576;8.568;2024-02-28T03:34:18;-0.70;83.10
44305;DHT22;30019;50.576;8.568;2024-02-28T03:36:44;-0.70;83.00
44305;DHT22;30019;50.576;8.568;2024-02-28T03:39:10;-0.70;83.10
44305;DHT22;30019;50.576;8.568;2024-02-28T03:41:35;-0.80;83.40
44305;DHT22;30019;50.576;8.568;2024-02-28T03:44:01;-0.70;83.60
44305;DHT22;30019;50.576;8.568;2024-02-28T03:46:27;-0.50;84.00
44305;DHT22;30019;50.576;8.568;2024-02-28T03:48:52;-0.40;84.40
44305;DHT22;30019;50.576;8.568;2024-02-28T03:51:18;-0.40;84.80
44305;DHT22;30019;50.576;8.568;2024-02-28T03:53:43;-0.30;85.60
44305;DHT22;30019;50.576;8.568;2024-02-28T03:56:09;-0.20;86.70
44305;DHT22;30019;50.576;8.568;2024-02-28T03:58:35;-0.30;87.10
44305;DHT22;30019;50.576;8.568;2024-02-28T04:01:00;-0.30;88.20
44305;DHT22;30019;50.576;8.568;2024-02-28T04:03:26;-0.20;89.50
44305;DHT22;30019;50.576;8.568;2024-02-28T04:05:52;-0.20;90.20
44305;DHT22;30019;50.576;8.568;2024-02-28T04:08:17;-0.10;90.70
44305;DHT22;30019;50.576;8.568;2024-02-28T04:10:43;-0.20;91.00
44305;DHT22;30019;50.576;8.568;2024-02-28T04:13:09;-0.10;91.20
44305;DHT22;30019;50.576;8.568;2024-02-28T04:15:34;-0.10;91.40
44305;DHT22;30019;50.576;8.568;2024-02-28T04:18:00;-0.10;91.70
44305;DHT22;30019;50.576;8.568;2024-02-28T04:20:25;0.00;92.10
44305;DHT22;30019;50.576;8.568;2024-02-28T04:22:51;0.00;92.10
44305;DHT22;30019;50.576;8.568;2024-02-28T04:25:16;0.00;92.30
44305;DHT22;30019;50.576;8.568;2024-02-28T04:27:42;0.10;92.50
44305;DHT22;30019;50.576;8.568;2024-02-28T04:30:09;0.10;92.60
44305;DHT22;30019;50.576;8.568;2024-02-28T04:32:34;0.10;92.70
44305;DHT22;30019;50.576;8.568;2024-02-28T04:35:01;0.10;92.80
44305;DHT22;30019;50.576;8.568;2024-02-28T04:37:28;0.20;92.90
44305;DHT22;30019;50.576;8.568;2024-02-28T04:39:53;0.20;92.90
44305;DHT22;30019;50.576;8.568;2024-02-28T04:42:19;0.20;93.00
44305;DHT22;30019;50.576;8.568;2024-02-28T04:44:44;0.20;93.10
44305;DHT22;30019;50.576;8.568;2024-02-28T04:47:10;0.20;93.20
44305;DHT22;30019;50.576;8.568;2024-02-28T04:49:38;0.20;93.30
44305;DHT22;30019;50.576;8.568;2024-02-28T04:52:05;0.20;93.30
44305;DHT22;30019;50.576;8.568;2024-02-28T04:54:31;0.30;93.40
44305;DHT22;30019;50.576;8.568;2024-02-28T04:56:56;0.30;93.60
44305;DHT22;30019;50.576;8.568;2024-02-28T04:59:22;0.30;93.60
44305;DHT22;30019;50.576;8.568;2024-02-28T05:01:47;0.30;93.80
44305;DHT22;30019;50.576;8.568;2024-02-28T05:04:13;0.30;93.90
44305;DHT22;30019;50.576;8.568;2024-02-28T05:06:39;0.30;94.00
44305;DHT22;30019;50.576;8.568;2024-02-28T05:09:05;0.30;94.10
44305;DHT22;30019;50.576;8.568;2024-02-28T05:11:31;0.30;94.60
44305;DHT22;30019;50.576;8.568;2024-02-28T05:13:57;0.30;94.50
44305;DHT22;30019;50.576;8.568;2024-02-28T05:16:23;0.30;94.60
44305;DHT22;30019;50.576;8.568;2024-02-28T05:18:48;0.30;94.60
44305;DHT22;30019;50.576;8.568;2024-02-28T05:21:14;0.40;94.80
44305;DHT22;30019;50.576;8.568;2024-02-28T05:23:40;0.30;94.90
44305;DHT22;30019;50.576;8.568;2024-02-28T05:26:05;0.40;95.10
44305;DHT22;30019;50.576;8.568;2024-02-28T05:28:33;0.30;95.00
44305;DHT22;30019;50.576;8.568;2024-02-28T05:31:10;0.30;95.10
44305;DHT22;30019;50.576;8.568;2024-02-28T05:33:44;0.40;95.40
44305;DHT22;30019;50.576;8.568;2024-02-28T05:36:10;0.30;95.30
44305;DHT22;30019;50.576;8.568;2024-02-28T05:38:35;0.30;95.40
44305;DHT22;30019;50.576;8.568;2024-02-28T05:41:02;0.30;95.50
44305;DHT22;30019;50.576;8.568;2024-02-28T05:43:28;0.30;95.40
44305;DHT22;30019;50.576;8.568;2024-02-28T05:45:53;0.50;95.50
44305;DHT22;30019;50.576;8.568;2024-02-28T05:48:19;0.30;95.30
44305;DHT22;30019;50.576;8.568;2024-02-28T05:50:45;0.40;95.40
44305;DHT22;30019;50.576;8.568;2024-02-28T05:53:11;0.40;95.50
44305;DHT22;30019;50.576;8.568;2024-02-28T05:55:37;0.40;95.50
44305;DHT22;30019;50.576;8.568;2024-02-28T05:58:02;0.40;95.60
44305;DHT22;30019;50.576;8.568;2024-02-28T06:00:28;0.40;95.50
44305;DHT22;30019;50.576;8.568;2024-02-28T06:02:54;0.40;95.60
44305;DHT22;30019;50.576;8.568;2024-02-28T06:05:20;0.50;95.70
44305;DHT22;30019;50.576;8.568;2024-02-28T06:07:45;0.40;95.70
44305;DHT22;30019;50.576;8.568;2024-02-28T06:10:11;0.40;95.80
44305;DHT22;30019;50.576;8.568;2024-02-28T06:12:36;0.40;95.70
44305;DHT22;30019;50.576;8.568;2024-02-28T06:15:04;0.50;95.90
44305;DHT22;30019;50.576;8.568;2024-02-28T06:17:29;0.40;96.00
44305;DHT22;30019;50.576;8.568;2024-02-28T06:19:55;0.40;95.90
44305;DHT22;30019;50.576;8.568;2024-02-28T06:22:20;0.40;95.90
44305;DHT22;30019;50.576;8.568;2024-02-28T06:24:46;0.50;95.90
44305;DHT22;30019;50.576;8.568;2024-02-28T06:27:12;0.40;95.80
44305;DHT22;30019;50.576;8.568;2024-02-28T06:29:39;0.40;95.80
44305;DHT22;30019;50.576;8.568;2024-02-28T06:32:05;0.40;95.80
44305;DHT22;30019;50.576;8.568;2024-02-28T06:34:30;0.50;95.90
44305;DHT22;30019;50.576;8.568;2024-02-28T06:36:56;0.50;95.90
44305;DHT22;30019;50.576;8.568;2024-02-28T06:39:22;0.40;95.90
44305;DHT22;30019;50.576;8.568;2024-02-28T06:41:47;0.40;95.90
44305;DHT22;30019;50.576;8.568;2024-02-28T06:44:15;0.50;96.00
44305;DHT22;30019;50.576;8.568;2024-02-28T06:46:41;0.50;95.90
44305;DHT22;30019;50.576;8.568;2024-02-28T06:49:07;0.40;95.90
44305;DHT22;30019;50.576;8.568;2024-02-28T06:51:32;0.40;95.90
44305;DHT22;30019;50.576;8.568;2024-02-28T06:53:58;0.40;95.90
44305;DHT22;30019;50.576;8.568;2024-02-28T06:56:23;0.40;95.90
44305;DHT22;30019;50.576;8.568;2024-02-28T06:58:49;0.40;96.00
44305;DHT22;30019;50.576;8.568;2024-02-28T07:01:15;0.40;96.00
44305;DHT22;30019;50.576;8.568;2024-02-28T07:03:40;0.30;95.90
44305;DHT22;30019;50.576;8.568;2024-02-28T07:06:06;0.30;95.90
44305;DHT22;30019;50.576;8.568;2024-02-28T07:08:32;0.30;95.90
44305;DHT22;30019;50.576;8.568;2024-02-28T07:10:58;0.30;95.80
44305;DHT22;30019;50.576;8.568;2024-02-28T07:13:23;0.20;95.80
44305;DHT22;30019;50.576;8.568;2024-02-28T07:15:49;0.20;95.80
44305;DHT22;30019;50.576;8.568;2024-02-28T07:18:15;0.30;95.80
44305;DHT22;30019;50.576;8.568;2024-02-28T07:20:40;0.20;95.70
44305;DHT22;30019;50.576;8.568;2024-02-28T07:23:06;0.20;95.70
44305;DHT22;30019;50.576;8.568;2024-02-28T07:25:31;0.20;95.60
44305;DHT22;30019;50.576;8.568;2024-02-28T07:27:58;0.20;95.60
44305;DHT22;30019;50.576;8.568;2024-02-28T07:30:28;0.20;95.70
44305;DHT22;30019;50.576;8.568;2024-02-28T07:32:53;0.10;95.70
44305;DHT22;30019;50.576;8.568;2024-02-28T07:35:19;0.20;95.70
44305;DHT22;30019;50.576;8.568;2024-02-28T07:37:46;0.20;95.80
44305;DHT22;30019;50.576;8.568;2024-02-28T07:40:12;0.10;95.70
44305;DHT22;30019;50.576;8.568;2024-02-28T07:42:38;0.10;95.70
44305;DHT22;30019;50.576;8.568;2024-02-28T07:45:03;0.30;95.80
44305;DHT22;30019;50.576;8.568;2024-02-28T07:47:29;0.30;95.70
44305;DHT22;30019;50.576;8.568;2024-02-28T07:49:55;0.30;95.70
44305;DHT22;30019;50.576;8.568;2024-02-28T07:52:20;0.20;95.60
44305;DHT22;30019;50.576;8.568;2024-02-28T07:54:46;0.20;95.50
44305;DHT22;30019;50.576;8.568;2024-02-28T07:57:12;0.30;95.60
44305;DHT22;30019;50.576;8.568;2024-02-28T07:59:41;0.40;95.60
44305;DHT22;30019;50.576;8.568;2024-02-28T08:02:08;0.40;95.60
44305;DHT22;30019;50.576;8.568;2024-02-28T08:04:33;0.40;95.50
44305;DHT22;30019;50.576;8.568;2024-02-28T08:07:00;0.50;95.50
44305;DHT22;30019;50.576;8.568;2024-02-28T08:09:25;0.50;95.40
44305;DHT22;30019;50.576;8.568;2024-02-28T08:11:51;0.60;95.50
44305;DHT22;30019;50.576;8.568;2024-02-28T08:14:16;0.50;95.20
44305;DHT22;30019;50.576;8.568;2024-02-28T08:16:43;0.60;95.10
44305;DHT22;30019;50.576;8.568;2024-02-28T08:19:08;0.60;95.10
44305;DHT22;30019;50.576;8.568;2024-02-28T08:21:34;0.50;95.00
44305;DHT22;30019;50.576;8.568;2024-02-28T08:23:59;0.50;95.10
44305;DHT22;30019;50.576;8.568;2024-02-28T08:26:27;0.50;94.90
44305;DHT22;30019;50.576;8.568;2024-02-28T08:28:53;0.60;95.10
44305;DHT22;30019;50.576;8.568;2024-02-28T08:31:19;0.80;95.20
44305;DHT22;30019;50.576;8.568;2024-02-28T08:33:44;0.80;95.00
44305;DHT22;30019;50.576;8.568;2024-02-28T08:36:10;0.90;95.00
44305;DHT22;30019;50.576;8.568;2024-02-28T08:38:35;0.80;94.50
44305;DHT22;30019;50.576;8.568;2024-02-28T08:41:04;0.80;94.50
44305;DHT22;30019;50.576;8.568;2024-02-28T08:43:30;0.90;94.50
44305;DHT22;30019;50.576;8.568;2024-02-28T08:45:55;0.90;94.40
44305;DHT22;30019;50.576;8.568;2024-02-28T08:48:21;0.90;94.30
44305;DHT22;30019;50.576;8.568;2024-02-28T08:50:47;0.80;94.40
44305;DHT22;30019;50.576;8.568;2024-02-28T08:53:12;0.80;94.20
44305;DHT22;30019;50.576;8.568;2024-02-28T08:55:38;1.00;94.20
44305;DHT22;30019;50.576;8.568;2024-02-28T08:58:03;1.20;94.20
44305;DHT22;30019;50.576;8.568;2024-02-28T09:00:29;1.20;93.60
44305;DHT22;30019;50.576;8.568;2024-02-28T09:02:55;1.20;93.30
44305;DHT22;30019;50.576;8.568;2024-02-28T09:05:21;1.20;93.40
44305;DHT22;30019;50.576;8.568;2024-02-28T09:07:47;1.20;93.20
44305;DHT22;30019;50.576;8.568;2024-02-28T09:10:16;1.20;93.00
44305;DHT22;30019;50.576;8.568;2024-02-28T09:12:46;1.20;92.90
44305;DHT22;30019;50.576;8.568;2024-02-28T09:15:12;1.50;93.20
44305;DHT22;30019;50.576;8.568;2024-02-28T09:17:37;1.60;92.70
44305;DHT22;30019;50.576;8.568;2024-02-28T09:20:03;1.60;92.50
44305;DHT22;30019;50.576;8.568;2024-02-28T09:22:31;1.60;92.30
44305;DHT22;30019;50.576;8.568;2024-02-28T09:24:57;1.40;92.40
44305;DHT22;30019;50.576;8.568;2024-02-28T09:27:22;1.50;92.80
44305;DHT22;30019;50.576;8.568;2024-02-28T09:29:49;1.50;92.70
44305;DHT22;30019;50.576;8.568;2024-02-28T09:32:15;1.60;93.00
44305;DHT22;30019;50.576;8.568;2024-02-28T09:34:41;1.60;92.60
44305;DHT22;30019;50.576;8.568;2024-02-28T09:37:07;1.60;92.10
44305;DHT22;30019;50.576;8.568;2024-02-28T09:39:32;1.80;92.60
44305;DHT22;30019;50.576;8.568;2024-02-28T09:41:58;1.80;91.80
44305;DHT22;30019;50.576;8.568;2024-02-28T09:44:23;1.70;92.20
44305;DHT22;30019;50.576;8.568;2024-02-28T09:46:52;1.70;92.00
44305;DHT22;30019;50.576;8.568;2024-02-28T09:49:18;1.80;92.00
44305;DHT22;30019;50.576;8.568;2024-02-28T09:51:44;1.90;91.90
44305;DHT22;30019;50.576;8.568;2024-02-28T09:54:14;2.00;91.50
44305;DHT22;30019;50.576;8.568;2024-02-28T09:56:40;1.90;91.60
44305;DHT22;30019;50.576;8.568;2024-02-28T09:59:06;2.10;91.30
44305;DHT22;30019;50.576;8.568;2024-02-28T10:01:36;2.10;91.20
44305;DHT22;30019;50.576;8.568;2024-02-28T10:04:02;2.10;91.00
44305;DHT22;30019;50.576;8.568;2024-02-28T10:06:28;2.20;91.00
44305;DHT22;30019;50.576;8.568;2024-02-28T10:08:53;2.30;90.70
44305;DHT22;30019;50.576;8.568;2024-02-28T10:11:20;2.30;90.60
44305;DHT22;30019;50.576;8.568;2024-02-28T10:13:49;2.20;90.60
44305;DHT22;30019;50.576;8.568;2024-02-28T10:16:15;2.30;90.70
44305;DHT22;30019;50.576;8.568;2024-02-28T10:18:45;2.40;90.10
44305;DHT22;30019;50.576;8.568;2024-02-28T10:21:11;2.40;90.10
44305;DHT22;30019;50.576;8.568;2024-02-28T10:23:38;2.50;90.70
44305;DHT22;30019;50.576;8.568;2024-02-28T10:26:03;2.40;90.50
44305;DHT22;30019;50.576;8.568;2024-02-28T10:28:29;2.60;89.90
44305;DHT22;30019;50.576;8.568;2024-02-28T10:30:55;2.60;90.20
44305;DHT22;30019;50.576;8.568;2024-02-28T10:33:20;2.60;90.00
44305;DHT22;30019;50.576;8.568;2024-02-28T10:35:50;2.70;88.90
44305;DHT22;30019;50.576;8.568;2024-02-28T10:38:17;2.90;89.90
44305;DHT22;30019;50.576;8.568;2024-02-28T10:40:43;2.70;87.60
44305;DHT22;30019;50.576;8.568;2024-02-28T10:43:09;3.00;88.70
44305;DHT22;30019;50.576;8.568;2024-02-28T10:45:38;3.20;87.20
44305;DHT22;30019;50.576;8.568;2024-02-28T10:48:07;2.90;87.30
44305;DHT22;30019;50.576;8.568;2024-02-28T10:50:33;3.10;87.90
44305;DHT22;30019;50.576;8.568;2024-02-28T10:53:03;3.30;86.70
44305;DHT22;30019;50.576;8.568;2024-02-28T10:55:39;3.40;85.80
44305;DHT22;30019;50.576;8.568;2024-02-28T10:58:09;3.40;85.30
44305;DHT22;30019;50.576;8.568;2024-02-28T11:00:37;3.70;85.60
44305;DHT22;30019;50.576;8.568;2024-02-28T11:03:15;3.60;86.50
44305;DHT22;30019;50.576;8.568;2024-02-28T11:05:43;3.50;84.80
44305;DHT22;30019;50.576;8.568;2024-02-28T11:08:19;3.20;84.90
44305;DHT22;30019;50.576;8.568;2024-02-28T11:10:45;3.50;86.40
44305;DHT22;30019;50.576;8.568;2024-02-28T11:13:22;3.50;85.60
44305;DHT22;30019;50.576;8.568;2024-02-28T11:15:47;3.50;84.70
44305;DHT22;30019;50.576;8.568;2024-02-28T11:18:13;3.50;83.30
44305;DHT22;30019;50.576;8.568;2024-02-28T11:20:38;3.80;83.70
44305;DHT22;30019;50.576;8.568;2024-02-28T11:23:06;4.00;83.60
44305;DHT22;30019;50.576;8.568;2024-02-28T11:25:32;3.80;82.70
44305;DHT22;30019;50.576;8.568;2024-02-28T11:27:57;3.80;83.20
44305;DHT22;30019;50.576;8.568;2024-02-28T11:30:25;3.90;83.60
44305;DHT22;30019;50.576;8.568;2024-02-28T11:32:54;4.10;82.20
44305;DHT22;30019;50.576;8.568;2024-02-28T11:35:20;4.40;81.60
44305;DHT22;30019;50.576;8.568;2024-02-28T11:37:47;4.40;80.60
44305;DHT22;30019;50.576;8.568;2024-02-28T11:40:13;4.70;82.50
44305;DHT22;30019;50.576;8.568;2024-02-28T11:42:39;4.80;82.00
44305;DHT22;30019;50.576;8.568;2024-02-28T11:45:10;4.80;78.60
44305;DHT22;30019;50.576;8.568;2024-02-28T11:47:36;4.60;79.40
44305;DHT22;30019;50.576;8.568;2024-02-28T11:50:02;5.70;82.70
44305;DHT22;30019;50.576;8.568;2024-02-28T11:52:31;6.00;74.80
44305;DHT22;30019;50.576;8.568;2024-02-28T11:54:57;5.50;74.10
44305;DHT22;30019;50.576;8.568;2024-02-28T11:57:22;7.10;74.80
44305;DHT22;30019;50.576;8.568;2024-02-28T11:59:48;7.10;67.50
44305;DHT22;30019;50.576;8.568;2024-02-28T12:02:15;7.30;68.70
44305;DHT22;30019;50.576;8.568;2024-02-28T12:04:41;9.00;63.10
44305;DHT22;30019;50.576;8.568;2024-02-28T12:07:08;9.00;60.50
44305;DHT22;30019;50.576;8.568;2024-02-28T12:09:34;9.60;59.50
44305;DHT22;30019;50.576;8.568;2024-02-28T12:12:03;9.20;60.60
44305;DHT22;30019;50.576;8.568;2024-02-28T12:14:35;9.80;57.90
44305;DHT22;30019;50.576;8.568;2024-02-28T12:17:01;9.10;58.50
44305;DHT22;30019;50.576;8.568;2024-02-28T12:19:27;8.60;60.60
44305;DHT22;30019;50.576;8.568;2024-02-28T12:21:54;8.20;62.60
44305;DHT22;30019;50.576;8.568;2024-02-28T12:24:20;8.20;63.20
44305;DHT22;30019;50.576;8.568;2024-02-28T12:26:46;8.30;62.70
44305;DHT22;30019;50.576;8.568;2024-02-28T12:29:12;8.30;60.40
44305;DHT22;30019;50.576;8.568;2024-02-28T12:31:38;9.60;58.70
44305;DHT22;30019;50.576;8.568;2024-02-28T12:34:04;8.80;58.50
44305;DHT22;30019;50.576;8.568;2024-02-28T12:36:29;8.10;60.00
44305;DHT22;30019;50.576;8.568;2024-02-28T12:38:56;8.60;59.90
44305;DHT22;30019;50.576;8.568;2024-02-28T12:41:23;9.20;61.00
44305;DHT22;30019;50.576;8.568;2024-02-28T12:43:48;8.80;59.80
44305;DHT22;30019;50.576;8.568;2024-02-28T12:46:15;9.00;58.30
44305;DHT22;30019;50.576;8.568;2024-02-28T12:48:41;9.30;57.90
44305;DHT22;30019;50.576;8.568;2024-02-28T12:51:08;9.00;58.40
44305;DHT22;30019;50.576;8.568;2024-02-28T12:53:35;9.50;58.20
44305;DHT22;30019;50.576;8.568;2024-02-28T12:56:01;9.40;56.90
44305;DHT22;30019;50.576;8.568;2024-02-28T12:58:27;10.10;55.60
44305;DHT22;30019;50.576;8.568;2024-02-28T13:00:52;9.80;57.20
44305;DHT22;30019;50.576;8.568;2024-02-28T13:03:18;10.30;55.70
44305;DHT22;30019;50.576;8.568;2024-02-28T13:05:44;12.10;53.10
44305;DHT22;30019;50.576;8.568;2024-02-28T13:08:10;11.80;48.70
44305;DHT22;30019;50.576;8.568;2024-02-28T13:10:36;11.10;53.50
44305;DHT22;30019;50.576;8.568;2024-02-28T13:13:09;11.80;50.50
44305;DHT22;30019;50.576;8.568;2024-02-28T13:15:34;12.10;51.40
44305;DHT22;30019;50.576;8.568;2024-02-28T13:18:00;12.40;48.60
44305;DHT22;30019;50.576;8.568;2024-02-28T13:20:27;12.30;50.60
44305;DHT22;30019;50.576;8.568;2024-02-28T13:22:53;11.90;48.90
44305;DHT22;30019;50.576;8.568;2024-02-28T13:25:19;12.30;49.90
44305;DHT22;30019;50.576;8.568;2024-02-28T13:27:45;12.90;50.50
44305;DHT22;30019;50.576;8.568;2024-02-28T13:30:12;12.40;48.70
44305;DHT22;30019;50.576;8.568;2024-02-28T13:32:38;10.60;50.50
44305;DHT22;30019;50.576;8.568;2024-02-28T13:35:04;12.70;51.10
44305;DHT22;30019;50.576;8.568;2024-02-28T13:37:30;13.40;49.90
44305;DHT22;30019;50.576;8.568;2024-02-28T13:39:56;12.60;46.40
44305;DHT22;30019;50.576;8.568;2024-02-28T13:42:22;12.20;50.80
44305;DHT22;30019;50.576;8.568;2024-02-28T13:44:50;11.70;48.50
44305;DHT22;30019;50.576;8.568;2024-02-28T13:47:15;12.30;49.00
44305;DHT22;30019;50.576;8.568;2024-02-28T13:49:41;13.40;46.80
44305;DHT22;30019;50.576;8.568;2024-02-28T13:52:06;12.90;45.20
44305;DHT22;30019;50.576;8.568;2024-02-28T13:54:32;11.80;47.50
44305;DHT22;30019;50.576;8.568;2024-02-28T13:56:58;11.30;51.50
44305;DHT22;30019;50.576;8.568;2024-02-28T13:59:23;12.40;50.50
44305;DHT22;30019;50.576;8.568;2024-02-28T14:01:49;12.90;48.30
44305;DHT22;30019;50.576;8.568;2024-02-28T14:04:15;12.90;49.20
44305;DHT22;30019;50.576;8.568;2024-02-28T14:06:41;13.10;47.70
44305;DHT22;30019;50.576;8.568;2024-02-28T14:09:07;13.20;47.40
44305;DHT22;30019;50.576;8.568;2024-02-28T14:11:32;12.40;46.50
44305;DHT22;30019;50.576;8.568;2024-02-28T14:13:58;12.10;48.00
44305;DHT22;30019;50.576;8.568;2024-02-28T14:16:24;12.50;48.20
44305;DHT22;30019;50.576;8.568;2024-02-28T14:18:50;12.50;49.70
44305;DHT22;30019;50.576;8.568;2024-02-28T14:21:16;12.60;49.40
44305;DHT22;30019;50.576;8.568;2024-02-28T14:23:42;12.70;49.10
44305;DHT22;30019;50.576;8.568;2024-02-28T14:26:08;12.60;48.90
44305;DHT22;30019;50.576;8.568;2024-02-28T14:28:33;12.70;49.20
44305;DHT22;30019;50.576;8.568;2024-02-28T14:30:59;12.70;48.90
44305;DHT22;30019;50.576;8.568;2024-02-28T14:33:25;12.70;49.40
44305;DHT22;30019;50.576;8.568;2024-02-28T14:35:50;12.90;48.90
44305;DHT22;30019;50.576;8.568;2024-02-28T14:38:17;13.00;48.90
44305;DHT22;30019;50.576;8.568;2024-02-28T14:40:42;13.00;46.70
44305;DHT22;30019;50.576;8.568;2024-02-28T14:43:08;12.70;47.80
44305;DHT22;30019;50.576;8.568;2024-02-28T14:45:34;13.00;48.10
44305;DHT22;30019;50.576;8.568;2024-02-28T14:48:00;12.90;48.00
44305;DHT22;30019;50.576;8.568;2024-02-28T14:50:25;12.80;48.60
44305;DHT22;30019;50.576;8.568;2024-02-28T14:52:51;13.20;48.20
44305;DHT22;30019;50.576;8.568;2024-02-28T14:55:16;13.20;48.60
44305;DHT22;30019;50.576;8.568;2024-02-28T14:57:42;13.00;47.60
44305;DHT22;30019;50.576;8.568;2024-02-28T15:00:08;12.30;48.30
44305;DHT22;30019;50.576;8.568;2024-02-28T15:02:39;12.10;50.50
44305;DHT22;30019;50.576;8.568;2024-02-28T15:05:05;11.40;51.70
44305;DHT22;30019;50.576;8.568;2024-02-28T15:07:32;11.10;52.30
44305;DHT22;30019;50.576;8.568;2024-02-28T15:09:58;10.90;53.70
44305;DHT22;30019;50.576;8.568;2024-02-28T15:12:28;10.70;53.50
44305;DHT22;30019;50.576;8.568;2024-02-28T15:14:55;10.50;55.00
44305;DHT22;30019;50.576;8.568;2024-02-28T15:17:21;10.50;53.60
44305;DHT22;30019;50.576;8.568;2024-02-28T15:19:47;10.20;55.20
44305;DHT22;30019;50.576;8.568;2024-02-28T15:22:13;10.00;54.20
44305;DHT22;30019;50.576;8.568;2024-02-28T15:24:38;10.10;55.40
44305;DHT22;30019;50.576;8.568;2024-02-28T15:27:05;10.00;55.80
44305;DHT22;30019;50.576;8.568;2024-02-28T15:29:31;9.90;58.20
44305;DHT22;30019;50.576;8.568;2024-02-28T15:31:57;10.00;55.80
44305;DHT22;30019;50.576;8.568;2024-02-28T15:34:23;9.80;56.90
44305;DHT22;30019;50.576;8.568;2024-02-28T15:36:48;9.80;58.40